createdAt,value
2022-12-29T00:01:12.251Z,14.13
2022-12-29T00:03:43.326Z,13.97
2022-12-29T00:06:11.671Z,12.53
2022-12-29T00:08:42.535Z,12.57
2022-12-29T00:11:11.803Z,13.20
2022-12-29T00:14:01.042Z,12.77
2022-12-29T00:16:29.853Z,12.77
2022-12-29T00:18:58.010Z,10.77
2022-12-29T00:21:44.282Z,9.60
2022-12-29T00:24:32.731Z,8.33
2022-12-29T00:27:25.795Z,8.33
2022-12-29T00:30:18.116Z,8.07
2022-12-29T00:33:03.728Z,7.50
2022-12-29T00:35:36.133Z,8.33
2022-12-29T00:38:24.801Z,8.13
2022-12-29T00:41:10.459Z,8.70
2022-12-29T00:43:56.413Z,9.07
2022-12-29T00:46:25.856Z,7.90
2022-12-29T00:49:11.119Z,7.77
2022-12-29T00:51:39.128Z,8.33
2022-12-29T00:54:07.115Z,8.23
2022-12-29T00:56:35.358Z,8.23
2022-12-29T00:59:03.923Z,8.33
2022-12-29T01:01:33.717Z,8.73
2022-12-29T01:04:04.017Z,8.97
2022-12-29T01:06:32.803Z,8.77
2022-12-29T01:09:19.139Z,8.87
2022-12-29T01:11:47.193Z,9.00
2022-12-29T01:14:15.199Z,9.33
2022-12-29T01:16:44.707Z,9.10
2022-12-29T01:19:12.877Z,10.53
2022-12-29T01:21:40.868Z,10.70
2022-12-29T01:24:09.048Z,11.43
2022-12-29T01:26:37.209Z,11.33
2022-12-29T01:29:05.202Z,12.10
2022-12-29T01:31:33.474Z,12.17
2022-12-29T01:34:03.139Z,12.83
2022-12-29T01:36:31.279Z,12.77
2022-12-29T01:38:59.366Z,12.80
2022-12-29T01:41:27.754Z,12.07
2022-12-29T01:43:58.123Z,11.37
2022-12-29T01:46:29.342Z,11.53
2022-12-29T01:49:06.951Z,11.60
2022-12-29T01:51:38.970Z,11.30
2022-12-29T01:54:13.669Z,9.83
2022-12-29T01:56:41.853Z,9.33
2022-12-29T01:59:18.069Z,9.63
2022-12-29T02:01:46.951Z,9.53
2022-12-29T02:04:16.779Z,8.93
2022-12-29T02:06:51.802Z,9.53
2022-12-29T02:09:20.361Z,8.60
2022-12-29T02:11:49.335Z,9.70
2022-12-29T02:14:17.322Z,9.93
2022-12-29T02:17:03.120Z,9.83
2022-12-29T02:20:09.325Z,10.40
2022-12-29T02:22:47.467Z,9.97
2022-12-29T02:25:51.343Z,9.80
2022-12-29T02:28:49.538Z,9.50
2022-12-29T02:31:24.771Z,10.23
2022-12-29T02:34:02.789Z,9.77
2022-12-29T02:36:42.357Z,9.97
2022-12-29T02:39:17.513Z,10.10
2022-12-29T02:41:57.891Z,9.70
2022-12-29T02:44:34.477Z,11.20
2022-12-29T02:47:11.789Z,11.00
2022-12-29T02:49:49.110Z,10.83
2022-12-29T02:52:22.359Z,11.20
2022-12-29T02:54:49.896Z,10.87
2022-12-29T02:57:31.435Z,10.87
2022-12-29T03:00:05.040Z,9.63
2022-12-29T03:02:48.888Z,10.97
2022-12-29T03:05:28.071Z,10.07
2022-12-29T03:08:06.488Z,9.47
2022-12-29T03:10:48.036Z,10.00
2022-12-29T03:13:43.350Z,10.23
2022-12-29T03:16:22.611Z,9.97
2022-12-29T03:18:59.076Z,10.57
2022-12-29T03:21:51.605Z,10.10
2022-12-29T03:24:22.750Z,9.97
2022-12-29T03:26:53.364Z,10.70
2022-12-29T03:29:22.629Z,9.63
2022-12-29T03:31:52.969Z,9.43
2022-12-29T03:34:23.867Z,8.57
2022-12-29T03:36:56.302Z,8.80
2022-12-29T03:39:26.909Z,9.37
2022-12-29T03:42:03.450Z,9.10
2022-12-29T03:44:37.150Z,8.57
2022-12-29T03:47:05.544Z,8.30
2022-12-29T03:49:35.244Z,8.57
2022-12-29T03:52:03.246Z,7.63
2022-12-29T03:54:32.021Z,7.63
2022-12-29T03:57:00.383Z,8.13
2022-12-29T03:59:28.346Z,9.60
2022-12-29T04:01:56.420Z,9.87
2022-12-29T04:04:24.439Z,9.43
2022-12-29T04:06:53.794Z,8.37
2022-12-29T04:09:21.850Z,8.47
2022-12-29T04:11:49.830Z,8.67
2022-12-29T04:14:18.358Z,8.73
2022-12-29T04:16:46.397Z,10.70
2022-12-29T04:19:15.064Z,11.73
2022-12-29T04:21:43.064Z,11.63
2022-12-29T04:24:13.883Z,11.57
2022-12-29T04:26:41.989Z,11.03
2022-12-29T04:29:10.025Z,10.63
2022-12-29T04:31:38.070Z,11.47
2022-12-29T04:34:06.038Z,11.10
2022-12-29T04:36:34.020Z,9.87
2022-12-29T04:39:02.673Z,11.03
2022-12-29T04:41:32.034Z,11.33
2022-12-29T04:44:00.040Z,11.40
2022-12-29T04:46:28.067Z,12.27
2022-12-29T04:48:56.142Z,11.73
2022-12-29T04:51:24.210Z,11.23
2022-12-29T04:53:52.205Z,11.13
2022-12-29T04:56:20.703Z,11.63
2022-12-29T04:58:50.081Z,12.73
2022-12-29T05:01:18.471Z,12.67
2022-12-29T05:03:46.542Z,15.17
2022-12-29T05:06:14.544Z,14.83
2022-12-29T05:08:42.514Z,13.40
2022-12-29T05:11:10.500Z,13.50
2022-12-29T05:13:38.505Z,12.33
2022-12-29T05:16:08.537Z,11.30
2022-12-29T05:18:36.720Z,12.00
2022-12-29T05:21:04.935Z,9.73
2022-12-29T05:23:33.075Z,9.80
2022-12-29T05:26:01.683Z,8.30
2022-12-29T05:28:29.737Z,9.83
2022-12-29T05:30:57.929Z,9.73
2022-12-29T05:33:27.518Z,9.43
2022-12-29T05:35:55.550Z,8.83
2022-12-29T05:38:24.219Z,9.53
2022-12-29T05:40:52.235Z,8.53
2022-12-29T05:43:20.193Z,7.87
2022-12-29T05:45:50.825Z,8.73
2022-12-29T05:48:18.869Z,8.37
2022-12-29T05:50:50.702Z,7.20
2022-12-29T05:53:19.307Z,7.57
2022-12-29T05:55:49.367Z,7.73
2022-12-29T05:58:17.924Z,7.97
2022-12-29T06:00:46.443Z,7.67
2022-12-29T06:03:14.734Z,6.73
2022-12-29T06:05:43.008Z,6.80
2022-12-29T06:08:12.414Z,7.03
2022-12-29T06:10:40.552Z,6.33
2022-12-29T06:13:08.602Z,6.37
2022-12-29T06:15:37.118Z,5.83
2022-12-29T06:18:05.464Z,6.10
2022-12-29T06:20:33.525Z,5.67
2022-12-29T06:23:01.560Z,6.50
2022-12-29T06:25:33.304Z,5.47
2022-12-29T06:28:01.500Z,6.17
2022-12-29T06:30:29.608Z,6.13
2022-12-29T06:32:57.645Z,6.53
2022-12-29T06:35:25.734Z,5.93
2022-12-29T06:37:53.952Z,6.70
2022-12-29T06:40:22.690Z,6.60
2022-12-29T06:42:52.188Z,6.23
2022-12-29T06:45:20.406Z,6.20
2022-12-29T06:47:48.510Z,6.60
2022-12-29T06:50:16.680Z,6.50
2022-12-29T06:52:45.464Z,6.50
2022-12-29T06:55:13.603Z,6.03
2022-12-29T06:57:41.727Z,6.57
2022-12-29T07:00:12.546Z,6.10
2022-12-29T07:02:40.760Z,5.77
2022-12-29T07:05:10.434Z,5.87
2022-12-29T07:07:38.547Z,5.70
2022-12-29T07:10:07.328Z,5.43
2022-12-29T07:12:36.989Z,6.10
2022-12-29T07:15:05.545Z,6.23
2022-12-29T07:17:35.073Z,6.40
2022-12-29T07:20:03.243Z,5.67
2022-12-29T07:22:31.474Z,5.93
2022-12-29T07:24:59.669Z,5.80
2022-12-29T07:27:27.809Z,5.90
2022-12-29T07:29:56.275Z,6.27
2022-12-29T07:32:24.371Z,5.60
2022-12-29T07:34:53.944Z,5.93
2022-12-29T07:37:22.049Z,5.40
2022-12-29T07:39:50.168Z,5.13
2022-12-29T07:42:18.505Z,5.70
2022-12-29T07:44:46.635Z,5.93
2022-12-29T07:47:14.825Z,5.47
2022-12-29T07:49:43.135Z,5.27
2022-12-29T07:52:12.628Z,5.87
2022-12-29T07:54:40.838Z,5.40
2022-12-29T07:57:08.954Z,5.40
2022-12-29T07:59:37.120Z,5.47
2022-12-29T08:02:05.379Z,4.73
2022-12-29T08:04:33.512Z,4.70
2022-12-29T08:07:01.758Z,4.90
2022-12-29T08:09:31.121Z,4.50
2022-12-29T08:11:59.104Z,4.57
2022-12-29T08:14:27.145Z,4.53
2022-12-29T08:16:59.583Z,3.93
2022-12-29T08:19:27.654Z,4.50
2022-12-29T08:21:55.865Z,4.17
2022-12-29T08:24:23.891Z,4.60
2022-12-29T08:26:53.509Z,4.43
2022-12-29T08:29:22.422Z,5.30
2022-12-29T08:31:50.559Z,5.17
2022-12-29T08:34:20.755Z,6.20
2022-12-29T08:36:48.941Z,6.17
2022-12-29T08:39:17.043Z,6.37
2022-12-29T08:41:45.038Z,7.17
2022-12-29T08:44:14.458Z,6.43
2022-12-29T08:46:42.551Z,6.43
2022-12-29T08:49:10.661Z,6.27
2022-12-29T08:51:41.741Z,6.53
2022-12-29T08:54:09.803Z,6.30
2022-12-29T08:56:37.839Z,6.20
2022-12-29T08:59:05.883Z,5.33
2022-12-29T09:01:37.389Z,4.97
2022-12-29T09:04:15.344Z,5.00
2022-12-29T09:06:44.326Z,5.13
2022-12-29T09:09:12.743Z,4.73
2022-12-29T09:11:40.827Z,4.63
2022-12-29T09:14:09.002Z,5.70
2022-12-29T09:16:55.075Z,5.17
2022-12-29T09:19:23.106Z,8.33
2022-12-29T09:21:51.625Z,7.07
2022-12-29T09:24:19.633Z,8.13
2022-12-29T09:26:47.666Z,7.07
2022-12-29T09:29:15.830Z,6.10
2022-12-29T09:31:45.326Z,5.63
2022-12-29T09:34:13.430Z,5.43
2022-12-29T09:36:41.839Z,4.97
2022-12-29T09:39:10.306Z,4.93
2022-12-29T09:41:45.200Z,5.00
2022-12-29T09:44:21.646Z,5.13
2022-12-29T09:46:53.265Z,4.70
2022-12-29T09:49:28.102Z,5.20
2022-12-29T09:51:59.500Z,5.30
2022-12-29T09:54:50.821Z,5.13
2022-12-29T09:57:26.793Z,5.50
2022-12-29T09:59:58.560Z,6.00
2022-12-29T10:02:38.835Z,6.10
2022-12-29T10:05:19.909Z,7.00
2022-12-29T10:07:54.213Z,6.60
2022-12-29T10:10:37.207Z,6.93
2022-12-29T10:13:23.896Z,6.50
2022-12-29T10:16:02.520Z,7.07
2022-12-29T10:18:59.516Z,6.40
2022-12-29T10:21:39.793Z,5.97
2022-12-29T10:24:12.421Z,7.27
2022-12-29T10:26:43.044Z,6.73
2022-12-29T10:29:18.191Z,7.53
2022-12-29T10:31:49.045Z,7.20
2022-12-29T10:34:24.182Z,8.40
2022-12-29T10:36:57.686Z,7.70
2022-12-29T10:39:33.854Z,7.20
2022-12-29T10:42:09.961Z,7.13
2022-12-29T10:44:40.638Z,7.63
2022-12-29T10:47:14.013Z,7.83
2022-12-29T10:49:46.805Z,8.40
2022-12-29T10:52:16.752Z,7.67
2022-12-29T10:57:10.555Z,8.33
2022-12-29T10:59:39.497Z,8.27
2022-12-29T11:02:42.286Z,8.93
2022-12-29T11:05:21.844Z,9.60
2022-12-29T11:07:50.611Z,8.60
2022-12-29T11:10:22.029Z,9.07
2022-12-29T11:13:04.330Z,9.00
2022-12-29T11:15:41.822Z,8.73
2022-12-29T11:18:22.556Z,8.07
2022-12-29T11:20:52.647Z,9.43
2022-12-29T11:23:27.821Z,9.20
2022-12-29T11:26:18.660Z,9.37
2022-12-29T11:28:49.912Z,9.40
2022-12-29T11:31:21.266Z,9.40
2022-12-29T11:33:49.326Z,8.50
2022-12-29T11:36:21.834Z,9.17
2022-12-29T11:38:52.163Z,8.67
2022-12-29T11:41:25.873Z,9.50
2022-12-29T11:43:58.059Z,8.93
2022-12-29T11:46:29.040Z,8.67
2022-12-29T11:49:01.742Z,8.23
2022-12-29T11:51:36.752Z,7.43
2022-12-29T11:54:06.854Z,9.53
2022-12-29T11:56:40.823Z,8.23
2022-12-29T11:59:38.904Z,8.77
2022-12-29T12:02:27.227Z,9.10
2022-12-29T12:05:03.427Z,7.83
2022-12-29T12:07:41.281Z,8.37
2022-12-29T12:10:18.211Z,7.83
2022-12-29T12:12:52.179Z,8.00
2022-12-29T12:15:25.954Z,7.73
2022-12-29T12:18:00.957Z,8.50
2022-12-29T12:20:40.219Z,7.87
2022-12-29T12:23:19.749Z,7.10
2022-12-29T12:25:55.339Z,7.87
2022-12-29T12:28:36.902Z,8.73
2022-12-29T12:31:20.173Z,6.93
2022-12-29T12:33:53.509Z,6.80
2022-12-29T12:36:32.383Z,6.57
2022-12-29T12:39:07.454Z,6.03
2022-12-29T12:41:46.860Z,5.43
2022-12-29T12:44:22.586Z,5.43
2022-12-29T12:47:37.309Z,5.00
2022-12-29T12:50:34.175Z,4.27
2022-12-29T12:53:29.781Z,4.63
2022-12-29T12:56:32.301Z,4.30
2022-12-29T12:59:10.131Z,4.40
2022-12-29T13:01:47.926Z,4.90
2022-12-29T13:04:51.576Z,5.20
2022-12-29T13:07:31.257Z,5.03
2022-12-29T13:10:19.400Z,4.87
2022-12-29T13:12:55.123Z,4.60
2022-12-29T13:15:39.787Z,4.70
2022-12-29T13:18:20.568Z,4.33
2022-12-29T13:20:56.276Z,4.97
2022-12-29T13:23:32.374Z,5.63
2022-12-29T13:26:08.545Z,5.07
2022-12-29T13:28:44.434Z,5.00
2022-12-29T13:31:20.359Z,4.80
2022-12-29T13:33:57.576Z,5.20
2022-12-29T13:36:32.549Z,4.73
2022-12-29T13:39:07.015Z,4.87
2022-12-29T13:41:39.364Z,4.93
2022-12-29T13:44:08.872Z,4.93
2022-12-29T13:46:41.172Z,5.57
2022-12-29T13:49:14.261Z,6.60
2022-12-29T13:51:49.710Z,7.10
2022-12-29T13:54:29.749Z,10.20
2022-12-29T13:57:07.897Z,8.37
2022-12-29T13:59:44.874Z,7.47
2022-12-29T14:02:26.520Z,6.67
2022-12-29T14:05:02.349Z,6.27
2022-12-29T14:07:38.381Z,6.33
2022-12-29T14:10:07.482Z,7.30
2022-12-29T14:12:40.299Z,5.87
2022-12-29T14:15:22.344Z,5.90
2022-12-29T14:18:06.601Z,6.00
2022-12-29T14:20:36.072Z,6.53
2022-12-29T14:23:29.148Z,6.00
2022-12-29T14:26:11.360Z,6.17
2022-12-29T14:28:43.269Z,6.50
2022-12-29T14:31:41.635Z,6.23
2022-12-29T14:34:32.946Z,6.10
2022-12-29T14:37:03.231Z,6.63
2022-12-29T14:39:38.417Z,7.13
2022-12-29T14:42:09.193Z,6.97
2022-12-29T14:44:49.032Z,6.00
2022-12-29T14:47:24.724Z,8.02
2022-12-29T14:49:53.397Z,8.50
2022-12-29T14:52:24.063Z,9.60
2022-12-29T14:54:57.351Z,8.83
2022-12-29T14:57:31.777Z,9.60
2022-12-29T15:00:07.429Z,8.70
2022-12-29T15:02:40.663Z,8.10
2022-12-29T15:05:26.677Z,9.10
2022-12-29T15:07:57.483Z,9.03
2022-12-29T15:10:33.369Z,10.60
2022-12-29T15:13:06.676Z,14.87
2022-12-29T15:15:40.124Z,19.80
2022-12-29T15:18:25.724Z,23.70
2022-12-29T15:20:56.954Z,17.50
2022-12-29T15:23:25.203Z,15.13
2022-12-29T15:25:57.982Z,12.87
2022-12-29T15:28:27.319Z,11.50
2022-12-29T15:30:57.381Z,11.40
2022-12-29T15:33:28.855Z,10.10
2022-12-29T15:35:59.146Z,10.63
2022-12-29T15:38:37.105Z,10.43
2022-12-29T15:41:31.622Z,12.50
2022-12-29T15:44:17.087Z,12.43
2022-12-29T15:46:45.564Z,12.20
2022-12-29T15:49:20.897Z,13.33
2022-12-29T15:51:49.069Z,12.53
2022-12-29T15:54:19.682Z,13.27
2022-12-29T15:56:50.849Z,13.70
2022-12-29T15:59:27.080Z,14.57
2022-12-29T16:01:58.591Z,14.23
2022-12-29T16:04:30.886Z,17.37
2022-12-29T16:07:02.031Z,17.80
2022-12-29T16:09:35.970Z,16.50
2022-12-29T16:12:08.996Z,17.27
2022-12-29T16:14:44.508Z,16.67
2022-12-29T16:17:20.328Z,16.53
2022-12-29T16:19:53.445Z,15.67
2022-12-29T16:22:28.968Z,16.53
2022-12-29T16:25:04.827Z,14.70
2022-12-29T16:27:44.159Z,15.77
2022-12-29T16:30:27.818Z,23.63
2022-12-29T16:33:01.209Z,20.27
2022-12-29T16:35:31.110Z,18.07
2022-12-29T16:38:16.490Z,17.87
2022-12-29T16:40:53.113Z,17.87
2022-12-29T16:43:25.213Z,18.37
2022-12-29T16:46:20.541Z,17.23
2022-12-29T16:48:51.402Z,16.57
2022-12-29T16:51:32.672Z,15.97
2022-12-29T16:54:04.746Z,17.80
2022-12-29T16:56:35.623Z,18.03
2022-12-29T16:59:08.885Z,19.77
2022-12-29T17:01:41.317Z,21.00
2022-12-29T17:04:11.969Z,24.77
2022-12-29T17:06:40.413Z,27.00
2022-12-29T17:09:21.608Z,27.20
2022-12-29T17:12:10.110Z,23.47
2022-12-29T17:14:43.824Z,22.00
2022-12-29T17:17:17.155Z,20.70
2022-12-29T17:19:49.188Z,19.23
2022-12-29T17:22:19.538Z,20.20
2022-12-29T17:24:47.600Z,18.87
2022-12-29T17:27:24.629Z,18.87
2022-12-29T17:29:59.560Z,18.93
2022-12-29T17:32:28.071Z,18.50
2022-12-29T17:34:56.167Z,18.37
2022-12-29T17:37:35.988Z,22.67
2022-12-29T17:40:05.142Z,21.67
2022-12-29T17:42:34.793Z,20.23
2022-12-29T17:45:04.568Z,19.37
2022-12-29T17:47:32.702Z,19.07
2022-12-29T17:50:01.628Z,17.77
2022-12-29T17:52:29.724Z,17.33
2022-12-29T17:55:01.043Z,18.70
2022-12-29T17:57:29.079Z,18.87
2022-12-29T17:59:57.656Z,18.53
2022-12-29T18:02:31.043Z,19.13
2022-12-29T18:05:00.273Z,19.57
2022-12-29T18:07:35.585Z,20.60
2022-12-29T18:10:04.263Z,20.13
2022-12-29T18:12:36.954Z,19.93
2022-12-29T18:15:05.809Z,18.43
2022-12-29T18:17:35.209Z,18.40
2022-12-29T18:20:03.234Z,18.63
2022-12-29T18:22:32.160Z,18.17
2022-12-29T18:25:02.045Z,17.83
2022-12-29T18:27:30.616Z,17.87
2022-12-29T18:29:58.956Z,17.67
2022-12-29T18:32:28.220Z,16.63
2022-12-29T18:34:57.574Z,17.27
2022-12-29T18:37:25.557Z,16.90
2022-12-29T18:39:53.592Z,16.97
2022-12-29T18:42:22.335Z,15.83
2022-12-29T18:44:50.558Z,16.90
2022-12-29T18:47:18.658Z,16.53
2022-12-29T18:49:46.736Z,17.57
2022-12-29T18:52:16.052Z,17.47
2022-12-29T18:54:44.023Z,17.90
2022-12-29T18:57:12.069Z,18.83
2022-12-29T18:59:42.541Z,19.47
2022-12-29T19:02:17.872Z,19.40
2022-12-29T19:04:48.923Z,19.23
2022-12-29T19:07:22.217Z,18.10
2022-12-29T19:09:50.279Z,18.63
2022-12-29T19:12:23.755Z,19.27
2022-12-29T19:14:56.188Z,18.00
2022-12-29T19:17:24.228Z,17.47
2022-12-29T19:19:52.291Z,18.37
2022-12-29T19:22:21.705Z,19.00
2022-12-29T19:24:53.619Z,16.53
2022-12-29T19:27:24.466Z,17.40
2022-12-29T19:29:52.501Z,17.43
2022-12-29T19:32:23.519Z,17.73
2022-12-29T19:34:51.579Z,18.50
2022-12-29T19:37:21.031Z,18.20
2022-12-29T19:39:49.333Z,17.77
2022-12-29T19:42:17.411Z,17.23
2022-12-29T19:44:45.915Z,15.03
2022-12-29T19:47:14.384Z,15.43
2022-12-29T19:49:43.393Z,14.17
2022-12-29T19:52:11.461Z,14.70
2022-12-29T19:54:43.244Z,15.60
2022-12-29T19:57:11.237Z,14.90
2022-12-29T19:59:39.330Z,16.00
2022-12-29T20:02:08.134Z,15.03
2022-12-29T20:04:36.307Z,15.77
2022-12-29T20:07:04.355Z,16.73
2022-12-29T20:09:32.723Z,15.00
2022-12-29T20:12:02.252Z,14.83
2022-12-29T20:14:30.342Z,13.87
2022-12-29T20:17:11.121Z,13.53
2022-12-29T20:19:40.280Z,13.47
2022-12-29T20:22:10.480Z,14.43
2022-12-29T20:24:43.880Z,14.87
2022-12-29T20:27:16.478Z,13.80
2022-12-29T20:29:44.722Z,14.23
2022-12-29T20:32:15.024Z,15.00
2022-12-29T20:34:44.348Z,16.43
2022-12-29T20:37:13.426Z,16.73
2022-12-29T20:39:42.888Z,16.70
2022-12-29T20:42:10.914Z,19.90
2022-12-29T20:44:40.344Z,20.37
2022-12-29T20:47:08.754Z,19.93
2022-12-29T20:49:40.329Z,20.47
2022-12-29T20:52:12.013Z,19.63
2022-12-29T20:54:40.247Z,21.33
2022-12-29T20:57:08.681Z,20.10
2022-12-29T20:59:39.783Z,21.20
2022-12-29T21:02:20.507Z,21.73
2022-12-29T21:07:41.770Z,22.73
2022-12-29T21:10:10.100Z,22.60
2022-12-29T21:12:38.194Z,23.43
2022-12-29T21:15:07.054Z,27.10
2022-12-29T21:17:36.537Z,33.53
2022-12-29T21:20:05.207Z,35.60
2022-12-29T21:22:33.329Z,37.80
2022-12-29T21:25:01.477Z,37.77
2022-12-29T21:27:29.964Z,38.10
2022-12-29T21:29:58.840Z,39.87
2022-12-29T21:32:27.808Z,38.67
2022-12-29T21:34:59.374Z,35.53
2022-12-29T21:37:27.719Z,37.23
2022-12-29T21:39:55.855Z,38.13
2022-12-29T21:42:23.857Z,37.73
2022-12-29T21:45:23.753Z,39.10
2022-12-29T21:48:09.751Z,38.13
2022-12-29T21:51:02.205Z,35.67
2022-12-29T21:53:39.651Z,36.17
2022-12-29T21:56:09.476Z,37.33
2022-12-29T21:58:55.282Z,41.20
2022-12-29T22:01:41.493Z,41.30
2022-12-29T22:04:29.427Z,41.13
2022-12-29T22:07:17.813Z,38.20
2022-12-29T22:10:03.325Z,36.80
2022-12-29T22:12:49.067Z,35.87
2022-12-29T22:15:17.333Z,35.87
2022-12-29T22:17:48.747Z,35.50
2022-12-29T22:20:17.589Z,36.37
2022-12-29T22:22:47.302Z,34.20
2022-12-29T22:25:15.736Z,34.23
2022-12-29T22:27:44.707Z,34.73
2022-12-29T22:30:15.882Z,35.73
2022-12-29T22:32:44.340Z,35.37
2022-12-29T22:35:13.362Z,35.27
2022-12-29T22:37:44.403Z,35.60
2022-12-29T22:40:14.512Z,35.47
2022-12-29T22:42:42.709Z,32.33
2022-12-29T22:45:11.406Z,33.87
2022-12-29T22:47:40.110Z,34.30
2022-12-29T22:50:08.726Z,33.77
2022-12-29T22:52:37.092Z,32.10
2022-12-29T22:55:07.227Z,32.73
2022-12-29T22:57:36.896Z,32.47
2022-12-29T23:00:09.137Z,31.60
2022-12-29T23:02:37.413Z,31.07
2022-12-29T23:05:06.452Z,31.60
2022-12-29T23:07:36.366Z,32.70
2022-12-29T23:10:05.578Z,33.33
2022-12-29T23:12:33.744Z,36.73
2022-12-29T23:15:03.250Z,36.37
2022-12-29T23:17:31.329Z,36.40
2022-12-29T23:19:59.376Z,36.70
2022-12-29T23:22:27.426Z,39.03
2022-12-29T23:24:55.673Z,37.57
2022-12-29T23:27:23.758Z,40.20
2022-12-29T23:29:51.814Z,40.07
2022-12-29T23:32:21.915Z,39.30
2022-12-29T23:34:49.902Z,38.23
2022-12-29T23:37:20.045Z,39.50
2022-12-29T23:39:48.010Z,38.40
2022-12-29T23:42:16.020Z,37.43
2022-12-29T23:44:44.026Z,37.43
2022-12-29T23:47:12.058Z,36.20
2022-12-29T23:49:41.426Z,35.50
2022-12-29T23:52:09.480Z,36.33
2022-12-29T23:54:37.894Z,36.70
2022-12-29T23:57:05.988Z,36.33
2022-12-29T23:59:34.030Z,36.13
